NOZ189 ENML-ENBR
Flight info
| Callsign | NOZ189 |
|---|---|
| Flight time | 0h 34m |
| Altitude | 30000 |
| Route | TUTOP DCT NIDGI |
| Aircraft | B738/M-SDE2E3FGHIRWXY/LB1 |
Departure
| Time | 2026-04-28 18:01 |
|---|---|
| Airport | Molde Airport, Årø (ENML) |
Arrival
| Time | 2026-04-28 18:36 |
|---|---|
| Airport | Bergen Airport, Flesland (ENBR) |
| Time | Latitude | Longitude | Altitude | Speed | Heading |
|---|---|---|---|---|---|
| 2026-04-28 17:52 | 62.74604 | 7.26152 | 26 ft | 0 kts | 341° |
| 2026-04-28 17:57 | 62.74605 | 7.26141 | 24 ft | 2 kts | 283° |
| 2026-04-28 17:57 | 62.74580 | 7.26113 | 23 ft | 5 kts | 206° |
| 2026-04-28 17:58 | 62.74543 | 7.26108 | 21 ft | 8 kts | 170° |
| 2026-04-28 17:58 | 62.74501 | 7.26131 | 21 ft | 11 kts | 165° |
| 2026-04-28 17:58 | 62.74436 | 7.25978 | 17 ft | 13 kts | 252° |
| 2026-04-28 17:58 | 62.74401 | 7.25751 | 17 ft | 21 kts | 251° |
| 2026-04-28 17:59 | 62.74335 | 7.25354 | 17 ft | 34 kts | 249° |
| 2026-04-28 17:59 | 62.74269 | 7.24925 | 17 ft | 19 kts | 251° |
| 2026-04-28 17:59 | 62.74246 | 7.24776 | 14 ft | 15 kts | 251° |
| 2026-04-28 17:59 | 62.74244 | 7.24746 | 14 ft | 1 kts | 283° |
| 2026-04-28 18:00 | 62.74236 | 7.24717 | 13 ft | 3 kts | 178° |
| 2026-04-28 18:00 | 62.74239 | 7.24761 | 15 ft | 4 kts | 61° |
| 2026-04-28 18:00 | 62.74250 | 7.24806 | 16 ft | 0 kts | 69° |
| 2026-04-28 18:01 | 62.74274 | 7.24949 | 17 ft | 38 kts | 71° |
| 2026-04-28 18:01 | 62.74470 | 7.26202 | 18 ft | 133 kts | 71° |
| 2026-04-28 18:01 | 62.74832 | 7.28512 | 483 ft | 173 kts | 73° |
| 2026-04-28 18:01 | 62.75207 | 7.30995 | 1745 ft | 173 kts | 72° |
| 2026-04-28 18:02 | 62.75340 | 7.33655 | 2533 ft | 189 kts | 109° |
| 2026-04-28 18:02 | 62.74508 | 7.35932 | 3081 ft | 199 kts | 159° |
| 2026-04-28 18:02 | 62.73181 | 7.36119 | 3810 ft | 193 kts | 205° |
| 2026-04-28 18:02 | 62.72222 | 7.34203 | 4510 ft | 191 kts | 239° |
| 2026-04-28 18:03 | 62.71531 | 7.31575 | 4905 ft | 214 kts | 245° |
| 2026-04-28 18:03 | 62.70864 | 7.28527 | 5359 ft | 233 kts | 247° |
| 2026-04-28 18:03 | 62.70152 | 7.25156 | 5835 ft | 255 kts | 247° |
| 2026-04-28 18:03 | 62.69357 | 7.21401 | 6081 ft | 290 kts | 247° |
| 2026-04-28 18:04 | 62.68474 | 7.17292 | 6735 ft | 306 kts | 247° |
| 2026-04-28 18:04 | 62.67560 | 7.13090 | 7590 ft | 314 kts | 248° |
| 2026-04-28 18:04 | 62.66595 | 7.08751 | 8472 ft | 322 kts | 245° |
| 2026-04-28 18:04 | 62.65202 | 7.04835 | 9333 ft | 337 kts | 225° |
| 2026-04-28 18:05 | 62.63275 | 7.01749 | 10176 ft | 349 kts | 218° |
| 2026-04-28 18:05 | 62.61944 | 6.99722 | 10658 ft | 355 kts | 219° |
| 2026-04-28 18:05 | 62.59185 | 6.95635 | 11858 ft | 361 kts | 217° |
| 2026-04-28 18:05 | 62.57063 | 6.92596 | 12667 ft | 368 kts | 218° |
| 2026-04-28 18:06 | 62.54940 | 6.89544 | 13459 ft | 375 kts | 218° |
| 2026-04-28 18:06 | 62.52755 | 6.86379 | 14289 ft | 380 kts | 219° |
| 2026-04-28 18:06 | 62.50541 | 6.83146 | 15043 ft | 385 kts | 219° |
| 2026-04-28 18:06 | 62.48310 | 6.79874 | 15823 ft | 388 kts | 219° |
| 2026-04-28 18:07 | 62.46060 | 6.76564 | 16555 ft | 393 kts | 219° |
| 2026-04-28 18:07 | 62.43786 | 6.73214 | 17248 ft | 399 kts | 219° |
| 2026-04-28 18:07 | 62.41503 | 6.69868 | 17891 ft | 403 kts | 219° |
| 2026-04-28 18:07 | 62.39168 | 6.66449 | 18606 ft | 408 kts | 219° |
| 2026-04-28 18:08 | 62.36811 | 6.62982 | 19256 ft | 412 kts | 219° |
| 2026-04-28 18:08 | 62.34416 | 6.59461 | 19774 ft | 420 kts | 219° |
| 2026-04-28 18:08 | 62.31979 | 6.55890 | 20410 ft | 424 kts | 219° |
| 2026-04-28 18:08 | 62.29554 | 6.52351 | 21071 ft | 427 kts | 219° |
| 2026-04-28 18:09 | 62.27059 | 6.48720 | 21693 ft | 429 kts | 220° |
| 2026-04-28 18:09 | 62.24600 | 6.45146 | 22182 ft | 436 kts | 219° |
| 2026-04-28 18:09 | 62.22080 | 6.41491 | 22474 ft | 439 kts | 220° |
| 2026-04-28 18:09 | 62.19537 | 6.37811 | 22437 ft | 439 kts | 219° |
| 2026-04-28 18:10 | 62.16985 | 6.34127 | 22455 ft | 443 kts | 220° |
| 2026-04-28 18:10 | 62.14415 | 6.30421 | 22481 ft | 448 kts | 219° |
| 2026-04-28 18:10 | 62.11824 | 6.26699 | 22473 ft | 447 kts | 219° |
| 2026-04-28 18:10 | 62.09246 | 6.23004 | 22453 ft | 446 kts | 219° |
| 2026-04-28 18:11 | 62.06667 | 6.19315 | 22459 ft | 444 kts | 219° |
| 2026-04-28 18:11 | 62.04101 | 6.15648 | 22441 ft | 444 kts | 219° |
| 2026-04-28 18:11 | 62.01527 | 6.11986 | 22453 ft | 444 kts | 219° |
| 2026-04-28 18:11 | 61.98949 | 6.08317 | 22465 ft | 444 kts | 219° |
| 2026-04-28 18:12 | 61.96378 | 6.04660 | 22467 ft | 446 kts | 219° |
| 2026-04-28 18:12 | 61.93785 | 6.00981 | 22461 ft | 447 kts | 219° |
| 2026-04-28 18:12 | 61.91227 | 5.97359 | 22459 ft | 448 kts | 219° |
| 2026-04-28 18:12 | 61.88633 | 5.93695 | 22484 ft | 448 kts | 219° |
| 2026-04-28 18:13 | 61.86030 | 5.90024 | 22486 ft | 449 kts | 219° |
| 2026-04-28 18:13 | 61.83425 | 5.86360 | 22485 ft | 450 kts | 218° |
| 2026-04-28 18:13 | 61.80806 | 5.82686 | 22477 ft | 451 kts | 218° |
| 2026-04-28 18:13 | 61.78185 | 5.79037 | 22475 ft | 451 kts | 217° |
| 2026-04-28 18:14 | 61.75388 | 5.75993 | 22465 ft | 456 kts | 205° |
| 2026-04-28 18:14 | 61.72347 | 5.74045 | 22464 ft | 457 kts | 194° |
| 2026-04-28 18:14 | 61.69190 | 5.73101 | 22483 ft | 458 kts | 187° |
| 2026-04-28 18:14 | 61.66056 | 5.72482 | 22488 ft | 458 kts | 187° |
| 2026-04-28 18:15 | 61.62872 | 5.71893 | 22479 ft | 459 kts | 186° |
| 2026-04-28 18:15 | 61.59689 | 5.71302 | 22476 ft | 459 kts | 187° |
| 2026-04-28 18:15 | 61.56500 | 5.70691 | 22461 ft | 460 kts | 187° |
| 2026-04-28 18:15 | 61.53300 | 5.70061 | 22460 ft | 461 kts | 187° |
| 2026-04-28 18:16 | 61.50106 | 5.69417 | 22460 ft | 460 kts | 187° |
| 2026-04-28 18:16 | 61.46915 | 5.68768 | 22462 ft | 460 kts | 187° |
| 2026-04-28 18:16 | 61.43724 | 5.68113 | 22455 ft | 460 kts | 187° |
| 2026-04-28 18:16 | 61.40573 | 5.67463 | 22457 ft | 460 kts | 187° |
| 2026-04-28 18:17 | 61.37381 | 5.66806 | 22453 ft | 459 kts | 187° |
| 2026-04-28 18:17 | 61.34235 | 5.66164 | 22390 ft | 448 kts | 187° |
| 2026-04-28 18:17 | 61.31156 | 5.65537 | 21988 ft | 441 kts | 187° |
| 2026-04-28 18:17 | 61.28104 | 5.64916 | 21516 ft | 438 kts | 187° |
| 2026-04-28 18:18 | 61.25078 | 5.64301 | 21036 ft | 434 kts | 187° |
| 2026-04-28 18:18 | 61.22083 | 5.63694 | 20570 ft | 430 kts | 187° |
| 2026-04-28 18:18 | 61.19156 | 5.63101 | 20068 ft | 427 kts | 187° |
| 2026-04-28 18:18 | 61.17157 | 5.62698 | 19758 ft | 424 kts | 187° |
| 2026-04-28 18:19 | 61.13288 | 5.61918 | 19151 ft | 419 kts | 186° |
| 2026-04-28 18:19 | 61.10395 | 5.61336 | 18655 ft | 417 kts | 186° |
| 2026-04-28 18:19 | 61.07516 | 5.60758 | 18122 ft | 414 kts | 186° |
| 2026-04-28 18:19 | 61.04647 | 5.60184 | 17617 ft | 411 kts | 186° |
| 2026-04-28 18:20 | 61.01817 | 5.59618 | 17142 ft | 408 kts | 186° |
| 2026-04-28 18:20 | 60.98997 | 5.59056 | 16669 ft | 404 kts | 186° |
| 2026-04-28 18:20 | 60.96201 | 5.58499 | 16198 ft | 401 kts | 187° |
| 2026-04-28 18:20 | 60.93474 | 5.57955 | 15738 ft | 397 kts | 186° |
| 2026-04-28 18:21 | 60.90723 | 5.57409 | 15282 ft | 394 kts | 186° |
| 2026-04-28 18:21 | 60.87999 | 5.56869 | 14838 ft | 392 kts | 186° |
| 2026-04-28 18:21 | 60.85287 | 5.56333 | 14367 ft | 391 kts | 186° |
| 2026-04-28 18:21 | 60.82582 | 5.55800 | 13844 ft | 389 kts | 186° |
| 2026-04-28 18:22 | 60.79903 | 5.55272 | 13360 ft | 385 kts | 186° |
| 2026-04-28 18:22 | 60.77242 | 5.54748 | 12888 ft | 381 kts | 186° |
| 2026-04-28 18:22 | 60.74609 | 5.54232 | 12436 ft | 377 kts | 186° |
| 2026-04-28 18:22 | 60.72042 | 5.53728 | 11992 ft | 374 kts | 186° |
| 2026-04-28 18:23 | 60.69464 | 5.53223 | 11566 ft | 370 kts | 186° |
| 2026-04-28 18:23 | 60.66893 | 5.52712 | 11127 ft | 367 kts | 186° |
| 2026-04-28 18:23 | 60.64388 | 5.52223 | 11000 ft | 355 kts | 186° |
| 2026-04-28 18:23 | 60.61967 | 5.51755 | 10815 ft | 342 kts | 186° |
| 2026-04-28 18:24 | 60.59637 | 5.51302 | 10703 ft | 332 kts | 186° |
| 2026-04-28 18:24 | 60.58118 | 5.51007 | 10615 ft | 326 kts | 186° |
| 2026-04-28 18:24 | 60.55177 | 5.50436 | 10446 ft | 312 kts | 186° |
| 2026-04-28 18:24 | 60.53062 | 5.50026 | 10451 ft | 299 kts | 186° |
| 2026-04-28 18:25 | 60.51028 | 5.49641 | 10448 ft | 286 kts | 186° |
| 2026-04-28 18:25 | 60.49088 | 5.49273 | 10433 ft | 274 kts | 186° |
| 2026-04-28 18:25 | 60.47251 | 5.48921 | 10431 ft | 263 kts | 186° |
| 2026-04-28 18:26 | 60.43662 | 5.48401 | 10466 ft | 256 kts | 185° |
| 2026-04-28 18:26 | 60.41882 | 5.48031 | 10200 ft | 263 kts | 187° |
| 2026-04-28 18:26 | 60.40030 | 5.47624 | 9860 ft | 268 kts | 187° |
| 2026-04-28 18:26 | 60.38179 | 5.47233 | 9539 ft | 267 kts | 186° |
| 2026-04-28 18:27 | 60.36317 | 5.46853 | 9066 ft | 269 kts | 186° |
| 2026-04-28 18:27 | 60.34470 | 5.46485 | 8790 ft | 265 kts | 186° |
| 2026-04-28 18:27 | 60.32614 | 5.46121 | 8512 ft | 274 kts | 186° |
| 2026-04-28 18:27 | 60.30687 | 5.45747 | 8093 ft | 287 kts | 186° |
| 2026-04-28 18:28 | 60.28675 | 5.45358 | 7600 ft | 289 kts | 186° |
| 2026-04-28 18:28 | 60.26686 | 5.44977 | 7141 ft | 284 kts | 186° |
| 2026-04-28 18:28 | 60.24729 | 5.44604 | 6688 ft | 280 kts | 186° |
| 2026-04-28 18:28 | 60.22802 | 5.44237 | 6216 ft | 277 kts | 186° |
| 2026-04-28 18:29 | 60.20893 | 5.43874 | 5793 ft | 272 kts | 186° |
| 2026-04-28 18:29 | 60.19025 | 5.43525 | 5389 ft | 267 kts | 186° |
| 2026-04-28 18:29 | 60.17187 | 5.43173 | 4958 ft | 263 kts | 186° |
| 2026-04-28 18:29 | 60.15393 | 5.42831 | 4538 ft | 259 kts | 186° |
| 2026-04-28 18:30 | 60.13633 | 5.42497 | 4370 ft | 246 kts | 186° |
| 2026-04-28 18:30 | 60.13064 | 5.42389 | 4324 ft | 241 kts | 187° |
| 2026-04-28 18:30 | 60.10850 | 5.39962 | 4148 ft | 210 kts | 239° |
| 2026-04-28 18:30 | 60.10289 | 5.37357 | 4014 ft | 203 kts | 259° |
| 2026-04-28 18:31 | 60.10232 | 5.34607 | 3789 ft | 196 kts | 280° |
| 2026-04-28 18:31 | 60.10473 | 5.31995 | 3653 ft | 187 kts | 284° |
| 2026-04-28 18:31 | 60.10823 | 5.29598 | 3524 ft | 173 kts | 308° |
| 2026-04-28 18:31 | 60.11772 | 5.28336 | 3442 ft | 164 kts | 343° |
| 2026-04-28 18:32 | 60.12854 | 5.27707 | 3214 ft | 160 kts | 342° |
| 2026-04-28 18:32 | 60.13937 | 5.27082 | 3012 ft | 161 kts | 346° |
| 2026-04-28 18:32 | 60.15022 | 5.26632 | 2777 ft | 158 kts | 349° |
| 2026-04-28 18:32 | 60.16086 | 5.26265 | 2585 ft | 152 kts | 349° |
| 2026-04-28 18:33 | 60.17109 | 5.25923 | 2384 ft | 149 kts | 349° |
| 2026-04-28 18:33 | 60.18111 | 5.25588 | 2193 ft | 142 kts | 349° |
| 2026-04-28 18:33 | 60.19078 | 5.25264 | 1997 ft | 138 kts | 349° |
| 2026-04-28 18:33 | 60.20030 | 5.24945 | 1833 ft | 140 kts | 348° |
| 2026-04-28 18:34 | 60.20972 | 5.24630 | 1633 ft | 134 kts | 349° |
| 2026-04-28 18:34 | 60.21865 | 5.24331 | 1458 ft | 128 kts | 348° |
| 2026-04-28 18:34 | 60.22732 | 5.24040 | 1304 ft | 130 kts | 348° |
| 2026-04-28 18:34 | 60.23627 | 5.23740 | 1127 ft | 130 kts | 347° |
| 2026-04-28 18:35 | 60.24496 | 5.23450 | 979 ft | 124 kts | 347° |
| 2026-04-28 18:35 | 60.25396 | 5.23146 | 801 ft | 136 kts | 348° |
| 2026-04-28 18:35 | 60.26330 | 5.22835 | 602 ft | 134 kts | 348° |
| 2026-04-28 18:35 | 60.27255 | 5.22527 | 404 ft | 135 kts | 346° |
| 2026-04-28 18:36 | 60.28172 | 5.22204 | 201 ft | 134 kts | 349° |
| 2026-04-28 18:36 | 60.29072 | 5.21905 | 151 ft | 129 kts | 352° |
| 2026-04-28 18:36 | 60.29675 | 5.21705 | 157 ft | 37 kts | 351° |
| 2026-04-28 18:36 | 60.29973 | 5.21607 | 161 ft | 21 kts | 356° |
| 2026-04-28 18:37 | 60.30048 | 5.21814 | 159 ft | 21 kts | 97° |
| 2026-04-28 18:37 | 60.29930 | 5.21937 | 158 ft | 20 kts | 167° |
| 2026-04-28 18:37 | 60.29791 | 5.21983 | 157 ft | 20 kts | 172° |
| 2026-04-28 18:37 | 60.29653 | 5.22031 | 156 ft | 22 kts | 170° |
| 2026-04-28 18:38 | 60.29477 | 5.22091 | 155 ft | 30 kts | 171° |
| 2026-04-28 18:38 | 60.29239 | 5.22169 | 152 ft | 37 kts | 170° |
| 2026-04-28 18:38 | 60.29021 | 5.22243 | 150 ft | 30 kts | 171° |
| 2026-04-28 18:38 | 60.28818 | 5.22308 | 149 ft | 29 kts | 171° |
| 2026-04-28 18:39 | 60.28691 | 5.22427 | 148 ft | 14 kts | 104° |
| 2026-04-28 18:39 | 60.28634 | 5.22564 | 147 ft | 13 kts | 112° |
| 2026-04-28 18:39 | 60.28636 | 5.22747 | 147 ft | 14 kts | 81° |
| 2026-04-28 18:39 | 60.28647 | 5.22871 | 147 ft | 0 kts | 79° |